Terminal Aerodrome Forecast
Issued by NWS

Home | Current Version | Previous Version | Graphics & Text | Print | Product List | Glossary On
Versions: 1 2 3 4 5 6 7 8 9 10 11 12 13 14 15 16 17 18
385
FTUS42 KMHX 161157 CCA
TAFOAJ
TAF COR
KOAJ 161157Z 1612/1712 VRB03KT 2SM BR SCT002 SCT080
      TEMPO 1612/1614 3/4SM BR BKN002
     FM161400 VRB04KT P6SM FEW250
     FM161700 04006KT P6SM SCT050
     FM170800 02004KT P6SM BKN008
      AMD LTD TO CLD VIS AND WIND=

USA.gov is the U.S. government's official web portal to all federal, state and local government web resources and services.